createdAt,value
2023-01-01T00:00:24.257Z,14.90
2023-01-01T00:02:52.158Z,14.78
2023-01-01T00:05:20.092Z,14.75
2023-01-01T00:07:47.935Z,14.71
2023-01-01T00:10:31.165Z,14.78
2023-01-01T00:13:01.077Z,14.78
2023-01-01T00:15:29.061Z,14.67
2023-01-01T00:17:57.842Z,14.74
2023-01-01T00:20:28.808Z,14.65
2023-01-01T00:23:01.434Z,14.61
2023-01-01T00:25:29.569Z,14.55
2023-01-01T00:27:57.568Z,14.59
2023-01-01T00:30:26.711Z,14.58
2023-01-01T00:32:56.062Z,14.55
2023-01-01T00:35:25.035Z,14.58
2023-01-01T00:37:54.026Z,14.66
2023-01-01T00:40:24.743Z,14.63
2023-01-01T00:42:52.931Z,14.60
2023-01-01T00:45:22.524Z,14.65
2023-01-01T00:47:53.573Z,14.65
2023-01-01T00:50:22.055Z,14.57
2023-01-01T00:52:50.697Z,14.40
2023-01-01T00:55:19.185Z,14.45
2023-01-01T00:57:47.005Z,14.49
2023-01-01T01:00:16.374Z,14.53
2023-01-01T01:02:44.214Z,14.57
2023-01-01T01:05:13.448Z,14.42
2023-01-01T01:07:41.645Z,14.36
2023-01-01T01:10:12.149Z,14.20
2023-01-01T01:12:40.147Z,14.10
2023-01-01T01:15:09.404Z,14.13
2023-01-01T01:17:37.419Z,14.06
2023-01-01T01:20:06.592Z,14.04
2023-01-01T01:22:35.901Z,14.04
2023-01-01T01:25:03.861Z,14.04
2023-01-01T01:27:31.755Z,13.97
2023-01-01T01:29:59.696Z,13.96
2023-01-01T01:32:27.520Z,13.86
2023-01-01T01:34:55.295Z,13.81
2023-01-01T01:37:23.232Z,13.78
2023-01-01T01:39:54.214Z,13.79
2023-01-01T01:42:23.171Z,13.79
2023-01-01T01:44:57.445Z,13.81
2023-01-01T01:47:30.446Z,13.80
2023-01-01T01:50:04.951Z,13.65
2023-01-01T01:52:37.314Z,13.69
2023-01-01T01:55:09.361Z,13.65
2023-01-01T01:57:39.665Z,13.61
2023-01-01T02:00:11.487Z,13.47
2023-01-01T02:02:46.321Z,13.60
2023-01-01T02:05:14.333Z,13.55
2023-01-01T02:07:42.597Z,13.44
2023-01-01T02:10:12.355Z,13.51
2023-01-01T02:12:40.354Z,13.47
2023-01-01T02:15:09.931Z,13.44
2023-01-01T02:17:45.229Z,13.40
2023-01-01T02:20:26.548Z,13.36
2023-01-01T02:23:18.311Z,13.52
2023-01-01T02:26:03.352Z,13.66
2023-01-01T02:28:46.116Z,13.70
2023-01-01T02:31:22.889Z,13.80
2023-01-01T02:33:54.272Z,13.82
2023-01-01T02:36:24.154Z,13.69
2023-01-01T02:38:55.930Z,13.70
2023-01-01T02:41:28.372Z,13.57
2023-01-01T02:46:33.384Z,13.52
2023-01-01T02:49:07.902Z,13.48
2023-01-01T02:51:47.618Z,13.37
2023-01-01T02:54:26.632Z,13.25
2023-01-01T02:57:05.109Z,13.24
2023-01-01T03:00:06.012Z,13.11
2023-01-01T03:02:50.950Z,13.04
2023-01-01T03:05:30.860Z,13.09
2023-01-01T03:08:09.980Z,13.08
2023-01-01T03:10:47.122Z,13.09
2023-01-01T03:13:21.706Z,13.13
2023-01-01T03:16:00.002Z,13.16
2023-01-01T03:18:34.785Z,13.19
2023-01-01T03:21:06.488Z,13.51
2023-01-01T03:23:49.894Z,13.48
2023-01-01T03:26:25.537Z,13.57
2023-01-01T03:28:59.310Z,13.66
2023-01-01T03:31:28.694Z,13.67
2023-01-01T03:34:02.057Z,13.77
2023-01-01T03:36:36.393Z,13.71
2023-01-01T03:39:11.026Z,13.77
2023-01-01T03:41:42.880Z,13.80
2023-01-01T03:44:18.451Z,13.84
2023-01-01T03:46:51.173Z,13.87
2023-01-01T03:49:19.743Z,13.81
2023-01-01T03:52:06.033Z,13.88
2023-01-01T03:54:46.733Z,13.87
2023-01-01T03:57:25.813Z,13.98
2023-01-01T04:00:03.763Z,13.92
2023-01-01T04:02:39.259Z,13.90
2023-01-01T04:05:11.200Z,13.91
2023-01-01T04:10:18.080Z,13.99
2023-01-01T04:12:49.446Z,14.00
2023-01-01T04:15:21.560Z,13.91
2023-01-01T04:17:54.852Z,13.92
2023-01-01T04:20:26.773Z,14.00
2023-01-01T04:22:56.997Z,14.01
2023-01-01T04:25:24.816Z,13.97
2023-01-01T04:27:52.633Z,13.96
2023-01-01T04:30:20.598Z,14.00
2023-01-01T04:32:49.792Z,13.94
2023-01-01T04:35:17.872Z,13.99
2023-01-01T04:37:46.177Z,13.87
2023-01-01T04:40:15.336Z,14.00
2023-01-01T04:42:44.240Z,13.91
2023-01-01T04:45:15.096Z,13.91
2023-01-01T04:47:43.332Z,13.91
2023-01-01T04:50:12.503Z,13.83
2023-01-01T04:52:40.293Z,13.79
2023-01-01T04:55:08.745Z,13.70
2023-01-01T04:57:36.489Z,13.74
2023-01-01T05:00:05.139Z,13.67
2023-01-01T05:02:32.955Z,13.73
2023-01-01T05:05:00.866Z,13.69
2023-01-01T05:07:30.003Z,13.61
2023-01-01T05:09:57.700Z,13.63
2023-01-01T05:12:25.562Z,13.60
2023-01-01T05:14:57.354Z,13.56
2023-01-01T05:17:28.611Z,13.38
2023-01-01T05:19:57.185Z,13.47
2023-01-01T05:22:25.047Z,13.33
2023-01-01T05:24:57.952Z,13.35
2023-01-01T05:27:25.740Z,13.40
2023-01-01T05:29:53.439Z,13.35
2023-01-01T05:32:21.190Z,13.33
2023-01-01T05:34:48.981Z,13.28
2023-01-01T05:37:16.767Z,13.30
2023-01-01T05:39:44.604Z,13.44
2023-01-01T05:42:15.470Z,13.34
2023-01-01T05:44:43.297Z,13.29
2023-01-01T05:47:11.031Z,13.23
2023-01-01T05:49:39.541Z,13.17
2023-01-01T05:52:07.286Z,13.20
2023-01-01T05:54:34.994Z,13.15
2023-01-01T05:57:02.755Z,13.18
2023-01-01T05:59:32.020Z,13.29
2023-01-01T06:01:59.911Z,13.36
2023-01-01T06:04:27.874Z,13.30
2023-01-01T06:06:55.720Z,13.17
2023-01-01T06:09:23.514Z,13.25
2023-01-01T06:11:51.298Z,13.26
2023-01-01T06:14:19.044Z,13.23
2023-01-01T06:16:48.239Z,13.26
2023-01-01T06:19:16.084Z,13.33
2023-01-01T06:21:43.793Z,13.26
2023-01-01T06:24:11.893Z,13.28
2023-01-01T06:26:39.711Z,13.32
2023-01-01T06:29:07.550Z,13.33
2023-01-01T06:31:40.463Z,13.35
2023-01-01T06:34:10.220Z,13.36
2023-01-01T06:36:37.994Z,13.39
2023-01-01T06:39:06.490Z,13.46
2023-01-01T06:41:34.385Z,13.50
2023-01-01T06:44:02.906Z,13.52
2023-01-01T06:46:32.522Z,13.45
2023-01-01T06:49:01.983Z,13.54
2023-01-01T06:51:32.514Z,13.56
2023-01-01T06:54:02.237Z,13.55
2023-01-01T06:56:30.497Z,13.42
2023-01-01T06:58:58.611Z,13.35
2023-01-01T07:01:29.086Z,13.25
2023-01-01T07:03:58.746Z,13.18
2023-01-01T07:06:27.771Z,13.18
2023-01-01T07:08:57.289Z,13.11
2023-01-01T07:11:25.803Z,13.15
2023-01-01T07:13:54.050Z,13.08
2023-01-01T07:16:22.839Z,13.18
2023-01-01T07:18:50.855Z,13.09
2023-01-01T07:21:41.527Z,13.08
2023-01-01T07:24:13.039Z,12.96
2023-01-01T07:26:41.044Z,12.90
2023-01-01T07:29:09.304Z,12.78
2023-01-01T07:31:38.574Z,12.81
2023-01-01T07:34:06.533Z,12.72
2023-01-01T07:36:34.821Z,12.77
2023-01-01T07:39:02.566Z,12.77
2023-01-01T07:41:31.724Z,12.71
2023-01-01T07:43:59.539Z,12.65
2023-01-01T07:46:27.466Z,12.79
2023-01-01T07:48:55.292Z,12.80
2023-01-01T07:51:23.050Z,12.85
2023-01-01T07:53:50.782Z,12.94
2023-01-01T07:56:18.845Z,12.99
2023-01-01T07:58:48.000Z,13.01
2023-01-01T08:01:16.070Z,12.93
2023-01-01T08:03:43.997Z,13.07
2023-01-01T08:06:13.892Z,13.07
2023-01-01T08:08:41.877Z,13.14
2023-01-01T08:11:10.213Z,13.13
2023-01-01T08:13:38.172Z,13.17
2023-01-01T08:16:08.388Z,13.17
2023-01-01T08:18:36.251Z,13.27
2023-01-01T08:21:04.998Z,13.50
2023-01-01T08:23:32.851Z,13.46
2023-01-01T08:26:02.133Z,13.66
2023-01-01T08:28:30.934Z,13.66
2023-01-01T08:30:59.316Z,13.74
2023-01-01T08:33:28.510Z,13.67
2023-01-01T08:35:56.412Z,13.53
2023-01-01T08:38:26.002Z,13.60
2023-01-01T08:40:54.150Z,13.71
2023-01-01T08:43:21.950Z,13.71
2023-01-01T08:45:49.656Z,13.57
2023-01-01T08:48:24.401Z,13.89
2023-01-01T08:51:00.850Z,13.88
2023-01-01T08:53:29.494Z,13.90
2023-01-01T08:56:01.562Z,14.16
2023-01-01T08:58:29.278Z,14.02
2023-01-01T09:00:59.321Z,14.08
2023-01-01T09:03:27.655Z,14.05
2023-01-01T09:05:55.937Z,14.07
2023-01-01T09:08:25.108Z,14.18
2023-01-01T09:10:53.967Z,14.17
2023-01-01T09:13:22.722Z,14.26
2023-01-01T09:15:50.768Z,13.99
2023-01-01T09:18:18.715Z,14.31
2023-01-01T09:20:46.600Z,14.30
2023-01-01T09:23:14.719Z,14.27
2023-01-01T09:25:44.047Z,14.08
2023-01-01T09:28:13.740Z,14.06
2023-01-01T09:30:45.593Z,14.15
2023-01-01T09:33:15.061Z,14.25
2023-01-01T09:35:45.141Z,14.22
2023-01-01T09:38:13.027Z,14.45
2023-01-01T09:40:52.345Z,14.24
2023-01-01T09:43:33.824Z,14.35
2023-01-01T09:46:03.574Z,14.46
2023-01-01T09:48:33.080Z,14.49
2023-01-01T09:51:04.357Z,14.46
2023-01-01T09:53:37.704Z,14.56
2023-01-01T09:56:12.180Z,14.44
2023-01-01T09:58:40.091Z,14.77
2023-01-01T10:01:18.226Z,14.55
2023-01-01T10:03:52.450Z,14.86
2023-01-01T10:06:25.441Z,14.71
2023-01-01T10:09:09.277Z,14.84
2023-01-01T10:11:46.598Z,14.83
2023-01-01T10:14:22.038Z,14.89
2023-01-01T10:16:53.548Z,15.05
2023-01-01T10:19:27.504Z,14.99
2023-01-01T10:21:59.090Z,15.37
2023-01-01T10:24:37.544Z,15.40
2023-01-01T10:27:07.324Z,15.39
2023-01-01T10:29:42.144Z,15.28
2023-01-01T10:32:19.973Z,15.46
2023-01-01T10:34:49.105Z,15.60
2023-01-01T10:37:19.334Z,15.71
2023-01-01T10:39:48.977Z,15.62
2023-01-01T10:42:20.305Z,15.66
2023-01-01T10:44:48.805Z,15.73
2023-01-01T10:47:29.378Z,15.75
2023-01-01T10:49:59.619Z,15.85
2023-01-01T10:52:35.567Z,15.83
2023-01-01T10:55:07.897Z,15.71
2023-01-01T10:57:40.387Z,15.73
2023-01-01T11:00:21.667Z,15.74
2023-01-01T11:03:06.367Z,15.84
2023-01-01T11:05:34.259Z,15.85
2023-01-01T11:08:02.435Z,15.98
2023-01-01T11:10:31.895Z,15.89
2023-01-01T11:13:05.869Z,15.93
2023-01-01T11:15:38.807Z,16.18
2023-01-01T11:18:08.869Z,16.03
2023-01-01T11:20:36.805Z,16.07
2023-01-01T11:23:29.299Z,16.07
2023-01-01T11:26:07.311Z,15.96
2023-01-01T11:28:37.477Z,16.38
2023-01-01T11:31:13.676Z,16.09
2023-01-01T11:33:46.871Z,16.31
2023-01-01T11:36:23.254Z,16.43
2023-01-01T11:39:04.397Z,16.37
2023-01-01T11:41:42.476Z,16.55
2023-01-01T11:44:15.240Z,16.43
2023-01-01T11:46:47.575Z,16.66
2023-01-01T11:49:22.057Z,16.45
2023-01-01T11:51:49.997Z,16.55
2023-01-01T11:54:33.133Z,16.85
2023-01-01T11:57:08.080Z,16.91
2023-01-01T11:59:46.805Z,16.80
2023-01-01T12:02:19.857Z,16.97
2023-01-01T12:04:54.406Z,16.79
2023-01-01T12:07:25.785Z,16.81
2023-01-01T12:10:01.571Z,16.48
2023-01-01T12:12:34.519Z,16.52
2023-01-01T12:15:08.128Z,16.77
2023-01-01T12:17:40.912Z,16.81
2023-01-01T12:20:21.309Z,16.59
2023-01-01T12:22:49.991Z,16.47
2023-01-01T12:25:20.748Z,16.87
2023-01-01T12:28:02.102Z,16.84
2023-01-01T12:30:45.425Z,16.65
2023-01-01T12:33:24.702Z,16.62
2023-01-01T12:36:05.037Z,16.73
2023-01-01T12:38:47.595Z,16.68
2023-01-01T12:41:28.973Z,16.63
2023-01-01T12:44:07.520Z,16.55
2023-01-01T12:46:49.220Z,16.52
2023-01-01T12:49:43.397Z,16.73
2023-01-01T12:52:26.882Z,16.44
2023-01-01T12:55:28.560Z,16.69
2023-01-01T12:58:04.479Z,16.59
2023-01-01T13:00:33.612Z,16.51
2023-01-01T13:03:09.126Z,16.44
2023-01-01T13:05:39.393Z,16.73
2023-01-01T13:08:08.608Z,16.49
2023-01-01T13:10:39.966Z,16.65
2023-01-01T13:13:08.652Z,16.81
2023-01-01T13:15:50.806Z,16.65
2023-01-01T13:18:24.863Z,16.66
2023-01-01T13:21:03.368Z,16.59
2023-01-01T13:23:48.888Z,16.35
2023-01-01T13:26:36.965Z,16.32
2023-01-01T13:29:31.602Z,16.71
2023-01-01T13:32:07.311Z,16.48
2023-01-01T13:34:58.694Z,16.52
2023-01-01T13:37:28.458Z,16.60
2023-01-01T13:39:57.902Z,16.55
2023-01-01T13:42:43.924Z,16.45
2023-01-01T13:45:44.102Z,16.50
2023-01-01T13:48:20.867Z,16.53
2023-01-01T13:51:00.031Z,16.58
2023-01-01T13:53:45.368Z,16.32
2023-01-01T13:56:38.960Z,16.39
2023-01-01T13:59:25.722Z,16.38
2023-01-01T14:02:10.747Z,16.35
2023-01-01T14:04:44.413Z,16.36
2023-01-01T14:07:49.599Z,16.36
2023-01-01T14:10:21.627Z,16.39
2023-01-01T14:12:50.057Z,16.32
2023-01-01T14:15:25.335Z,16.26
2023-01-01T14:17:54.670Z,16.32
2023-01-01T14:20:24.909Z,16.50
2023-01-01T14:22:54.677Z,16.37
2023-01-01T14:25:28.729Z,16.31
2023-01-01T14:27:59.414Z,16.49
2023-01-01T14:30:27.928Z,16.38
2023-01-01T14:32:59.591Z,16.61
2023-01-01T14:35:28.367Z,16.36
2023-01-01T14:37:58.060Z,16.44
2023-01-01T14:40:28.730Z,16.31
2023-01-01T14:43:01.432Z,16.15
2023-01-01T14:45:30.953Z,16.22
2023-01-01T14:48:03.138Z,16.30
2023-01-01T14:50:32.503Z,16.14
2023-01-01T14:53:06.170Z,16.24
2023-01-01T14:55:40.351Z,16.25
2023-01-01T14:58:14.711Z,16.04
2023-01-01T15:00:42.594Z,15.89
2023-01-01T15:03:14.885Z,15.90
2023-01-01T15:05:43.886Z,15.93
2023-01-01T15:08:24.581Z,15.93
2023-01-01T15:10:53.730Z,15.86
2023-01-01T15:13:23.718Z,15.86
2023-01-01T15:15:53.635Z,15.88
2023-01-01T15:18:37.426Z,15.86
2023-01-01T15:21:08.746Z,15.95
2023-01-01T15:23:38.464Z,15.94
2023-01-01T15:26:10.386Z,15.96
2023-01-01T15:28:39.431Z,15.87
2023-01-01T15:31:07.533Z,15.67
2023-01-01T15:33:35.581Z,15.70
2023-01-01T15:36:04.011Z,15.71
2023-01-01T15:38:36.386Z,15.72
2023-01-01T15:41:30.590Z,15.91
2023-01-01T15:44:08.901Z,15.96
2023-01-01T15:46:47.333Z,15.87
2023-01-01T15:49:27.484Z,15.85
2023-01-01T15:52:00.756Z,15.87
2023-01-01T15:54:29.549Z,15.80
2023-01-01T15:56:59.355Z,15.86
2023-01-01T15:59:30.494Z,15.80
2023-01-01T16:02:12.303Z,15.72
2023-01-01T16:04:41.126Z,15.58
2023-01-01T16:07:17.769Z,15.70
2023-01-01T16:09:45.959Z,15.64
2023-01-01T16:12:15.130Z,15.62
2023-01-01T16:14:43.349Z,15.72
2023-01-01T16:17:15.072Z,15.62
2023-01-01T16:19:43.457Z,15.64
2023-01-01T16:22:15.594Z,15.73
2023-01-01T16:24:43.917Z,15.78
2023-01-01T16:27:11.929Z,15.82
2023-01-01T16:29:43.511Z,15.75
2023-01-01T16:32:17.890Z,15.79
2023-01-01T16:34:45.887Z,15.80
2023-01-01T16:37:13.796Z,15.72
2023-01-01T16:39:41.928Z,15.82
2023-01-01T16:42:13.951Z,15.74
2023-01-01T16:44:43.780Z,15.77
2023-01-01T16:47:12.165Z,15.59
2023-01-01T16:49:40.043Z,15.37
2023-01-01T16:52:11.113Z,15.42
2023-01-01T16:54:40.157Z,15.43
2023-01-01T16:57:08.172Z,15.48
2023-01-01T16:59:36.103Z,15.49
2023-01-01T17:02:05.834Z,15.49
2023-01-01T17:04:35.188Z,15.41
2023-01-01T17:07:03.205Z,15.34
2023-01-01T17:09:34.808Z,15.48
2023-01-01T17:12:02.770Z,15.44
2023-01-01T17:14:30.721Z,15.37
2023-01-01T17:16:58.907Z,15.32
2023-01-01T17:19:28.123Z,15.42
2023-01-01T17:21:58.921Z,15.40
2023-01-01T17:24:27.003Z,15.43
2023-01-01T17:26:56.373Z,15.27
2023-01-01T17:29:25.773Z,15.22
2023-01-01T17:31:54.646Z,15.11
2023-01-01T17:34:22.460Z,15.07
2023-01-01T17:36:51.669Z,15.05
2023-01-01T17:39:19.495Z,15.02
2023-01-01T17:41:47.256Z,14.89
2023-01-01T17:44:15.240Z,14.86
2023-01-01T17:46:44.282Z,14.74
2023-01-01T17:49:12.516Z,14.69
2023-01-01T17:51:40.422Z,14.71
2023-01-01T17:54:13.787Z,14.71
2023-01-01T17:56:42.084Z,14.61
2023-01-01T17:59:10.429Z,14.58
2023-01-01T18:01:38.549Z,14.49
2023-01-01T18:04:08.253Z,14.61
2023-01-01T18:06:42.101Z,14.59
2023-01-01T18:09:14.642Z,14.63
2023-01-01T18:11:43.456Z,14.55
2023-01-01T18:14:12.504Z,14.45
2023-01-01T18:16:42.484Z,14.53
2023-01-01T18:19:10.553Z,14.63
2023-01-01T18:21:38.471Z,14.54
2023-01-01T18:24:11.842Z,14.36
2023-01-01T18:26:41.165Z,14.46
2023-01-01T18:29:09.057Z,14.27
2023-01-01T18:31:37.008Z,14.08
2023-01-01T18:34:06.737Z,14.15
2023-01-01T18:36:35.691Z,14.10
2023-01-01T18:39:10.986Z,14.10
2023-01-01T18:42:19.115Z,14.06
2023-01-01T18:44:47.282Z,13.86
2023-01-01T18:47:18.541Z,13.93
2023-01-01T18:49:50.171Z,13.74
2023-01-01T18:52:22.765Z,13.63
2023-01-01T18:54:58.015Z,13.75
2023-01-01T18:57:29.739Z,13.66
2023-01-01T19:00:00.393Z,13.68
2023-01-01T19:02:36.093Z,13.68
2023-01-01T19:05:16.761Z,13.66
2023-01-01T19:07:46.530Z,13.62
2023-01-01T19:10:15.232Z,13.38
2023-01-01T19:12:45.039Z,13.54
2023-01-01T19:15:18.129Z,13.64
2023-01-01T19:17:46.343Z,13.59
2023-01-01T19:20:19.486Z,13.56
2023-01-01T19:22:47.826Z,13.39
2023-01-01T19:25:36.994Z,13.41
2023-01-01T19:28:34.800Z,13.59
2023-01-01T19:31:04.288Z,13.64
2023-01-01T19:33:32.551Z,13.67
2023-01-01T19:36:00.460Z,13.65
2023-01-01T19:38:28.481Z,13.63
2023-01-01T19:40:56.613Z,13.81
2023-01-01T19:43:24.428Z,13.73
2023-01-01T19:45:53.591Z,13.74
2023-01-01T19:48:21.591Z,13.59
2023-01-01T19:50:49.480Z,13.57
2023-01-01T19:53:17.699Z,13.57
2023-01-01T19:55:45.678Z,13.47
2023-01-01T19:58:13.789Z,13.56
2023-01-01T20:00:41.751Z,13.55
2023-01-01T20:03:51.606Z,13.58
2023-01-01T20:05:59.485Z,13.30
2023-01-01T20:08:28.600Z,13.47
2023-01-01T20:10:56.602Z,13.53
2023-01-01T20:13:24.654Z,13.52
2023-01-01T20:15:53.144Z,13.65
2023-01-01T20:18:22.833Z,13.60
2023-01-01T20:21:08.122Z,13.78
2023-01-01T20:23:36.028Z,13.78
2023-01-01T20:26:05.132Z,13.75
2023-01-01T20:28:50.892Z,13.67
2023-01-01T20:31:18.982Z,13.69
2023-01-01T20:33:51.432Z,13.69
2023-01-01T20:36:37.716Z,13.61
2023-01-01T20:39:05.674Z,13.57
2023-01-01T20:41:33.512Z,13.47
2023-01-01T20:44:02.529Z,13.22
2023-01-01T20:46:30.849Z,13.34
2023-01-01T20:49:00.256Z,13.48
2023-01-01T20:51:28.815Z,13.60
2023-01-01T20:53:56.682Z,13.59
2023-01-01T20:56:24.615Z,13.65
2023-01-01T20:58:59.006Z,13.94
2023-01-01T21:01:27.688Z,13.81
2023-01-01T21:03:55.930Z,13.75
2023-01-01T21:06:25.377Z,13.61
2023-01-01T21:08:53.800Z,13.63
2023-01-01T21:11:22.061Z,13.73
2023-01-01T21:13:51.693Z,13.72
2023-01-01T21:16:23.575Z,13.91
2023-01-01T21:18:52.933Z,13.69
2023-01-01T21:21:24.044Z,13.89
2023-01-01T21:23:58.633Z,14.13
2023-01-01T21:26:28.679Z,14.14
2023-01-01T21:29:01.140Z,14.16
2023-01-01T21:31:37.753Z,14.23
2023-01-01T21:34:18.241Z,13.81
2023-01-01T21:36:46.519Z,13.93
2023-01-01T21:39:18.180Z,13.83
2023-01-01T21:41:46.932Z,13.79
2023-01-01T21:44:16.750Z,13.83
2023-01-01T21:46:54.256Z,13.70
2023-01-01T21:49:30.533Z,13.50
2023-01-01T21:52:00.650Z,13.22
2023-01-01T21:54:34.649Z,12.91
2023-01-01T21:57:14.749Z,12.88
2023-01-01T21:59:44.601Z,12.93
2023-01-01T22:02:33.035Z,12.91
2023-01-01T22:05:03.701Z,12.81
2023-01-01T22:10:28.945Z,12.69
2023-01-01T22:12:59.957Z,12.68
2023-01-01T22:15:37.682Z,12.72
2023-01-01T22:18:25.146Z,12.76
2023-01-01T22:20:53.761Z,12.81
2023-01-01T22:23:29.068Z,12.84
2023-01-01T22:25:58.406Z,12.78
2023-01-01T22:28:28.149Z,12.69
2023-01-01T22:31:02.517Z,12.60
2023-01-01T22:33:37.837Z,12.70
2023-01-01T22:36:14.150Z,12.66
2023-01-01T22:38:42.096Z,12.63
2023-01-01T22:41:12.870Z,12.65
2023-01-01T22:43:43.724Z,12.69
2023-01-01T22:46:17.994Z,12.65
2023-01-01T22:48:45.937Z,12.71
2023-01-01T22:51:19.254Z,12.64
2023-01-01T22:53:47.132Z,12.51
2023-01-01T22:56:16.302Z,12.37
2023-01-01T22:58:44.092Z,12.31
2023-01-01T23:01:12.364Z,12.43
2023-01-01T23:03:40.225Z,12.43
2023-01-01T23:06:08.494Z,12.39
2023-01-01T23:08:36.543Z,12.55
2023-01-01T23:11:04.378Z,12.55
2023-01-01T23:13:51.302Z,12.49
2023-01-01T23:16:19.077Z,12.62
2023-01-01T23:18:46.982Z,12.60
2023-01-01T23:21:26.053Z,12.52
2023-01-01T23:23:56.441Z,12.42
2023-01-01T23:26:25.183Z,12.37
2023-01-01T23:28:55.659Z,12.37
2023-01-01T23:31:27.003Z,12.34
2023-01-01T23:33:55.942Z,12.38
2023-01-01T23:36:24.143Z,12.28
2023-01-01T23:38:52.013Z,12.36
2023-01-01T23:41:19.954Z,12.35
2023-01-01T23:43:47.744Z,12.47
2023-01-01T23:46:18.443Z,12.47
2023-01-01T23:48:47.424Z,12.40
2023-01-01T23:51:16.213Z,12.41
2023-01-01T23:53:43.974Z,12.10
2023-01-01T23:56:12.135Z,12.06
2023-01-01T23:58:40.068Z,12.07
